Celebrity Solstice — 9HRJ9 — position and weather

sailwx.info

Track history (hours):
 
Tides and Currents Weather Stations Pressure Air Temp Water Temp Dewpoint Dewpoint Depression Visibility Wind Speed Wind Dir Waves Ship Positions

Celebrity Solstice

Last reported at 2015-Aug-30 03:00 UTC. Time now 2015-Aug-30 05:51 UTC.
Position N 52°36' W 130°12'.

Length 316 m; draft 8.9 m.

Type: Passenger vessel. MMSI: 249409000.

Wind from 210 at 22 knots

Waves 2.0 meters (7 feet), 2 second period

Barometer 992.0 mb
Air temperature 16.0 ° C
Visibility: greater than 27.0 NM
Water temperature 18.0 ° C

Date/timePositionNaut miles runAvg speedWind from/ knotsBaromVisibWave heightAir tempDewpointWater temp
2015-Aug-30 03:00N 52°36' W 130°12'25516.2 210 / 22992.027.0 2.016.0 18.0
2015-Aug-29 11:17N 49°08' W 126°20'1318.0
2015-Aug-29 10:33N 48°60' W 126°04'1817.8
2015-Aug-29 09:34N 48°49' W 125°43'1818.4
2015-Aug-29 08:34N 48°37' W 125°21'1817.6
2015-Aug-29 07:33N 48°31' W 124°56'1817.9
2015-Aug-29 06:34N 48°27' W 124°30'1918.7
2015-Aug-29 05:33N 48°20' W 124°04'2019.7
2015-Aug-29 04:32N 48°15' W 123°34'1414.1
2015-Aug-29 03:34N 48°10' W 123°15'1818.3
2015-Aug-29 02:33N 48°11' W 122°47'1818.4
2015-Aug-29 01:33N 47°56' W 122°32'1717.1
2015-Aug-29 00:33N 47°39' W 122°28'4 3.5
2015-Aug-28 23:33N 47°38' W 122°23'0 0.0
2015-Aug-28 14:10N 47°38' W 122°23'0 0.0
2015-Aug-28 13:31N 47°38' W 122°23'2 2.6
2015-Aug-28 12:33N 47°38' W 122°27'1312.6
2015-Aug-28 11:33N 47°50' W 122°28'1312.9
2015-Aug-28 10:33N 48°01' W 122°38'1413.8
2015-Aug-28 09:33N 48°11' W 122°53'1818.1
2015-Aug-28 08:33N 48°10' W 123°19'1110.8
2015-Aug-28 07:33N 48°21' W 123°25'5 2.1
2015-Aug-28 05:18N 48°25' W 123°23'0 0.0
2015-Aug-28 00:12N 48°25' W 123°23'4 5.5
2015-Aug-27 23:33N 48°22' W 123°25'1212.4
2015-Aug-27 22:33N 48°13' W 123°39'1616.5
2015-Aug-27 21:33N 48°16' W 124°04'1717.2
2015-Aug-27 20:33N 48°23' W 124°27'1817.8
2015-Aug-27 19:33N 48°29' W 124°53'1817.7
2015-Aug-27 18:33N 48°32' W 125°19'1717.4
2015-Aug-27 17:33N 48°40' W 125°42'1717.1
2015-Aug-27 16:33N 48°50' W 126°03'1717.4
2015-Aug-27 15:33N 49°01' W 126°24'1717.3
2015-Aug-27 14:33N 49°12' W 126°45'1917.9
2015-Aug-27 13:31N 49°23' W 127°07'21118.3
2015-Aug-27 02:00N 51°42' W 131°18'23321.1 060 / 171016.027.0 1.017.0 19.0
2015-Aug-26 15:00N 55°12' W 134°06'   010 / 121019.027.0 2.016.0 15.0
2015-Aug-24 06:00N 56°06' W 133°48'212 8.5 130 / 201011.0 0.0
2015-Aug-23 05:00N 53°06' W 130°36'27416.5 30.0 15.0
2015-Aug-22 12:23N 49°16' W 126°37'1718.4
2015-Aug-22 11:29N 49°06' W 126°17'1718.5
2015-Aug-22 10:34N 48°56' W 125°57'1918.6
2015-Aug-22 09:33N 48°44' W 125°35'1918.8
2015-Aug-22 08:34N 48°32' W 125°12'1918.7
2015-Aug-22 07:34N 48°31' W 124°44'1919.0
2015-Aug-22 06:34N 48°23' W 124°18'1918.9
2015-Aug-22 05:33N 48°17' W 123°51'1817.5
2015-Aug-22 04:33N 48°12' W 123°26'1312.9
2015-Aug-22 03:34N 48°13' W 123°06'1716.4
2015-Aug-22 02:33N 48°09' W 122°42'1616.5
2015-Aug-22 01:34N 47°55' W 122°29'1817.6
2015-Aug-22 00:34N 47°38' W 122°27'3 0.3
2015-Aug-21 14:14N 47°38' W 122°23'0 0.0
2015-Aug-21 13:23N 47°38' W 122°23'3 3.9
2015-Aug-21 12:33N 47°38' W 122°28'1312.9
2015-Aug-21 11:34N 47°51' W 122°28'1413.8
2015-Aug-21 10:33N 48°03' W 122°39'1514.7
2015-Aug-21 09:33N 48°12' W 122°57'1616.1
2015-Aug-21 08:33N 48°10' W 123°21'1211.7
2015-Aug-21 07:33N 48°22' W 123°25'4 3.6
2015-Aug-21 06:33N 48°25' W 123°23'0 0.0
2015-Aug-21 05:33N 48°25' W 123°23'0 0.0
2015-Aug-21 04:33N 48°25' W 123°23'0 0.0
2015-Aug-21 03:33N 48°25' W 123°23'0 0.0
2015-Aug-21 02:33N 48°25' W 123°23'0 0.0
2015-Aug-21 01:33N 48°25' W 123°23'0 0.0
2015-Aug-21 00:33N 48°25' W 123°23'0 0.0
2015-Aug-20 23:33N 48°25' W 123°23'0 0.0
2015-Aug-20 22:33N 48°25' W 123°23'0 0.0
2015-Aug-20 21:34N 48°25' W 123°23'0 0.0
2015-Aug-20 20:33N 48°25' W 123°23'0 0.0
2015-Aug-20 19:33N 48°25' W 123°23'0 0.0
2015-Aug-20 18:33N 48°25' W 123°23'0 0.0
2015-Aug-20 17:33N 48°25' W 123°23'0 0.0
2015-Aug-20 16:34N 48°25' W 123°23'0 0.0
2015-Aug-20 15:33N 48°25' W 123°23'0 0.1
2015-Aug-20 14:34N 48°25' W 123°23'9 9.5
2015-Aug-20 13:34N 48°16' W 123°27'1414.0
2015-Aug-20 12:33N 48°13' W 123°48'1615.6
2015-Aug-20 11:31N 48°18' W 124°11'1616.4
2015-Aug-20 10:33N 48°25' W 124°32'1515.3
2015-Aug-20 09:33N 48°29' W 124°55'1515.2
2015-Aug-20 08:33N 48°31' W 125°18'1615.7
2015-Aug-20 07:33N 48°39' W 125°38'1615.7
2015-Aug-20 06:33N 48°47' W 125°58'1615.9
2015-Aug-20 05:33N 48°57' W 126°17'1616.3
2015-Aug-20 04:32N 49°08' W 126°37'  
Track history (hours):
 
Tides and Currents Weather Stations Pressure Air Temp Water Temp Dewpoint Dewpoint Depression Visibility Wind Speed Wind Dir Waves Ship Positions

Celebrity Solstice

Last reported at 2015-Aug-30 03:00 UTC. Time now 2015-Aug-30 05:51 UTC.
Position N 52°36' W 130°12'.

Length 316 m; draft 8.9 m.

Type: Passenger vessel. MMSI: 249409000.

Wind from 210 at 22 knots

Waves 2.0 meters (7 feet), 2 second period

Barometer 992.0 mb
Air temperature 16.0 ° C
Visibility: greater than 27.0 NM
Water temperature 18.0 ° C

Date/timePositionNaut miles runAvg speedWind from/ knotsBaromVisibWave heightAir tempDewpointWater temp
2015-Aug-30 03:00N 52°36' W 130°12'25516.2 210 / 22992.027.0 2.016.0 18.0
2015-Aug-29 11:17N 49°08' W 126°20'1318.0
2015-Aug-29 10:33N 48°60' W 126°04'1817.8
2015-Aug-29 09:34N 48°49' W 125°43'1818.4
2015-Aug-29 08:34N 48°37' W 125°21'1817.6
2015-Aug-29 07:33N 48°31' W 124°56'1817.9
2015-Aug-29 06:34N 48°27' W 124°30'1918.7
2015-Aug-29 05:33N 48°20' W 124°04'2019.7
2015-Aug-29 04:32N 48°15' W 123°34'1414.1
2015-Aug-29 03:34N 48°10' W 123°15'1818.3
2015-Aug-29 02:33N 48°11' W 122°47'1818.4
2015-Aug-29 01:33N 47°56' W 122°32'1717.1
2015-Aug-29 00:33N 47°39' W 122°28'4 3.5
2015-Aug-28 23:33N 47°38' W 122°23'0 0.0
2015-Aug-28 14:10N 47°38' W 122°23'0 0.0
2015-Aug-28 13:31N 47°38' W 122°23'2 2.6
2015-Aug-28 12:33N 47°38' W 122°27'1312.6
2015-Aug-28 11:33N 47°50' W 122°28'1312.9
2015-Aug-28 10:33N 48°01' W 122°38'1413.8
2015-Aug-28 09:33N 48°11' W 122°53'1818.1
2015-Aug-28 08:33N 48°10' W 123°19'1110.8
2015-Aug-28 07:33N 48°21' W 123°25'5 2.1
2015-Aug-28 05:18N 48°25' W 123°23'0 0.0
2015-Aug-28 00:12N 48°25' W 123°23'4 5.5
2015-Aug-27 23:33N 48°22' W 123°25'1212.4
2015-Aug-27 22:33N 48°13' W 123°39'1616.5
2015-Aug-27 21:33N 48°16' W 124°04'1717.2
2015-Aug-27 20:33N 48°23' W 124°27'1817.8
2015-Aug-27 19:33N 48°29' W 124°53'1817.7
2015-Aug-27 18:33N 48°32' W 125°19'1717.4
2015-Aug-27 17:33N 48°40' W 125°42'1717.1
2015-Aug-27 16:33N 48°50' W 126°03'1717.4
2015-Aug-27 15:33N 49°01' W 126°24'1717.3
2015-Aug-27 14:33N 49°12' W 126°45'1917.9
2015-Aug-27 13:31N 49°23' W 127°07'21118.3
2015-Aug-27 02:00N 51°42' W 131°18'23321.1 060 / 171016.027.0 1.017.0 19.0
2015-Aug-26 15:00N 55°12' W 134°06'   010 / 121019.027.0 2.016.0 15.0
2015-Aug-24 06:00N 56°06' W 133°48'212 8.5 130 / 201011.0 0.0
2015-Aug-23 05:00N 53°06' W 130°36'27416.5 30.0 15.0
2015-Aug-22 12:23N 49°16' W 126°37'1718.4
2015-Aug-22 11:29N 49°06' W 126°17'1718.5
2015-Aug-22 10:34N 48°56' W 125°57'1918.6
2015-Aug-22 09:33N 48°44' W 125°35'1918.8
2015-Aug-22 08:34N 48°32' W 125°12'1918.7
2015-Aug-22 07:34N 48°31' W 124°44'1919.0
2015-Aug-22 06:34N 48°23' W 124°18'1918.9
2015-Aug-22 05:33N 48°17' W 123°51'1817.5
2015-Aug-22 04:33N 48°12' W 123°26'1312.9
2015-Aug-22 03:34N 48°13' W 123°06'1716.4
2015-Aug-22 02:33N 48°09' W 122°42'1616.5
2015-Aug-22 01:34N 47°55' W 122°29'1817.6
2015-Aug-22 00:34N 47°38' W 122°27'3 0.3
2015-Aug-21 14:14N 47°38' W 122°23'0 0.0
2015-Aug-21 13:23N 47°38' W 122°23'3 3.9
2015-Aug-21 12:33N 47°38' W 122°28'1312.9
2015-Aug-21 11:34N 47°51' W 122°28'1413.8
2015-Aug-21 10:33N 48°03' W 122°39'1514.7
2015-Aug-21 09:33N 48°12' W 122°57'1616.1
2015-Aug-21 08:33N 48°10' W 123°21'1211.7
2015-Aug-21 07:33N 48°22' W 123°25'4 3.6
2015-Aug-21 06:33N 48°25' W 123°23'0 0.0
2015-Aug-21 05:33N 48°25' W 123°23'0 0.0
2015-Aug-21 04:33N 48°25' W 123°23'0 0.0
2015-Aug-21 03:33N 48°25' W 123°23'0 0.0
2015-Aug-21 02:33N 48°25' W 123°23'0 0.0
2015-Aug-21 01:33N 48°25' W 123°23'0 0.0
2015-Aug-21 00:33N 48°25' W 123°23'0 0.0
2015-Aug-20 23:33N 48°25' W 123°23'0 0.0
2015-Aug-20 22:33N 48°25' W 123°23'0 0.0
2015-Aug-20 21:34N 48°25' W 123°23'0 0.0
2015-Aug-20 20:33N 48°25' W 123°23'0 0.0
2015-Aug-20 19:33N 48°25' W 123°23'0 0.0
2015-Aug-20 18:33N 48°25' W 123°23'0 0.0
2015-Aug-20 17:33N 48°25' W 123°23'0 0.0
2015-Aug-20 16:34N 48°25' W 123°23'0 0.0
2015-Aug-20 15:33N 48°25' W 123°23'0 0.1
2015-Aug-20 14:34N 48°25' W 123°23'9 9.5
2015-Aug-20 13:34N 48°16' W 123°27'1414.0
2015-Aug-20 12:33N 48°13' W 123°48'1615.6
2015-Aug-20 11:31N 48°18' W 124°11'1616.4
2015-Aug-20 10:33N 48°25' W 124°32'1515.3
2015-Aug-20 09:33N 48°29' W 124°55'1515.2
2015-Aug-20 08:33N 48°31' W 125°18'1615.7
2015-Aug-20 07:33N 48°39' W 125°38'1615.7
2015-Aug-20 06:33N 48°47' W 125°58'1615.9
2015-Aug-20 05:33N 48°57' W 126°17'1616.3
2015-Aug-20 04:32N 49°08' W 126°37'  

Dump ship's entire track history